Time;durP1;ratioP1;P1;durP2;ratioP2;P2;SDS_P1;SDS_P2;PMS_P1;PMS_P2;Temp;Humidity;BMP_temperature;BMP_pressure;BME280_temperature;BME280_humidity;BME280_pressure;Samples;Min_cycle;Max_cycle;Signal;HPM_P1;HPM_P2
2021/12/04 00:00:46;;;;;;;27.00;16.83;;;;;;;;;;5015902;28;20033;-84
2021/12/04 00:03:12;;;;;;;30.00;17.15;;;;;;;;;;5013742;28;20131;-84
2021/12/04 00:05:43;;;;;;;29.50;17.67;;;;;;;;;;4995956;28;20045;-84
2021/12/04 00:08:09;;;;;;;26.98;17.80;;;;;;;;;;5027838;28;20416;-84
2021/12/04 00:10:35;;;;;;;25.33;16.85;;;;;;;;;;4999010;28;20056;-84
2021/12/04 00:13:01;;;;;;;27.25;17.02;;;;;;;;;;5023721;28;20521;-84
2021/12/04 00:15:27;;;;;;;27.40;16.48;;;;;;;;;;5014449;28;20056;-84
2021/12/04 00:17:56;;;;;;;27.15;17.85;;;;;;;;;;4997164;28;20419;-85
2021/12/04 00:20:24;;;;;;;29.08;17.90;;;;;;;;;;5032568;28;20119;-84
2021/12/04 00:22:50;;;;;;;28.25;17.73;;;;;;;;;;5012490;28;20412;-84
2021/12/04 00:25:16;;;;;;;33.38;18.55;;;;;;;;;;4997102;28;20404;-84
2021/12/04 00:27:44;;;;;;;26.10;17.70;;;;;;;;;;5015329;28;20044;-84
2021/12/04 00:30:10;;;;;;;31.05;18.02;;;;;;;;;;5032456;28;20059;-84
2021/12/04 00:32:40;;;;;;;29.55;16.50;;;;;;;;;;5031558;28;20045;-84
2021/12/04 00:37:49;;;;;;;30.33;17.38;;;;;;;;;;5018580;28;20045;-84
2021/12/04 00:51:14;;;;;;;31.35;18.60;;;;;;;;;;5031229;28;20415;-84
2021/12/04 00:53:40;;;;;;;31.50;17.75;;;;;;;;;;5015164;28;20046;-84
2021/12/04 00:56:06;;;;;;;28.58;16.65;;;;;;;;;;5034311;28;20045;-85
2021/12/04 00:58:32;;;;;;;26.77;16.83;;;;;;;;;;5018372;28;20511;-84
2021/12/04 01:00:58;;;;;;;27.35;16.80;;;;;;;;;;5035057;28;20522;-84
2021/12/04 01:03:24;;;;;;;29.13;18.13;;;;;;;;;;5035733;28;20037;-84
2021/12/04 01:05:51;;;;;;;25.60;16.88;;;;;;;;;;5035409;28;20544;-84
2021/12/04 01:08:17;;;;;;;24.23;16.65;;;;;;;;;;5019636;28;20080;-84
2021/12/04 01:10:44;;;;;;;25.95;17.35;;;;;;;;;;5034691;28;20048;-84
2021/12/04 01:13:13;;;;;;;27.17;17.75;;;;;;;;;;5001206;28;20052;-84
2021/12/04 01:15:40;;;;;;;26.10;17.23;;;;;;;;;;5015404;28;20041;-84
2021/12/04 01:18:06;;;;;;;24.33;16.52;;;;;;;;;;5015925;28;20270;-84
2021/12/04 01:20:32;;;;;;;23.70;16.20;;;;;;;;;;5015345;28;20387;-84
2021/12/04 01:22:58;;;;;;;24.90;17.35;;;;;;;;;;5001519;28;20172;-85
2021/12/04 01:25:24;;;;;;;25.13;16.92;;;;;;;;;;4998271;28;20124;-84
2021/12/04 01:27:50;;;;;;;25.10;16.58;;;;;;;;;;5009956;28;20063;-85
2021/12/04 01:30:16;;;;;;;24.80;16.20;;;;;;;;;;5018773;28;20047;-84
2021/12/04 01:32:42;;;;;;;23.80;16.27;;;;;;;;;;5033630;28;20132;-84
2021/12/04 01:35:08;;;;;;;27.48;16.40;;;;;;;;;;5018089;28;20083;-84
2021/12/04 01:37:34;;;;;;;22.55;16.15;;;;;;;;;;5026332;28;20042;-84
2021/12/04 01:40:00;;;;;;;22.98;15.85;;;;;;;;;;5015707;28;20044;-84
2021/12/04 01:42:28;;;;;;;23.27;16.52;;;;;;;;;;4997716;28;20128;-84
2021/12/04 01:44:57;;;;;;;22.85;15.70;;;;;;;;;;4998195;28;20124;-84
2021/12/04 01:47:23;;;;;;;23.05;16.42;;;;;;;;;;5027561;28;20037;-84
2021/12/04 01:49:51;;;;;;;23.88;16.55;;;;;;;;;;5020932;28;20039;-84
2021/12/04 01:52:18;;;;;;;20.73;15.50;;;;;;;;;;5003878;28;20037;-84
2021/12/04 01:54:45;;;;;;;22.08;15.10;;;;;;;;;;5017770;28;20043;-84
2021/12/04 01:57:13;;;;;;;21.73;14.60;;;;;;;;;;5045288;28;20042;-84
2021/12/04 01:59:42;;;;;;;21.15;15.45;;;;;;;;;;5040886;28;20021;-86
2021/12/04 02:02:08;;;;;;;21.85;15.23;;;;;;;;;;5018619;28;20065;-84
2021/12/04 02:04:35;;;;;;;20.58;14.88;;;;;;;;;;4998139;28;20041;-84
2021/12/04 02:07:03;;;;;;;19.42;14.00;;;;;;;;;;5015114;28;20043;-84
2021/12/04 02:09:33;;;;;;;17.98;13.98;;;;;;;;;;5017947;28;20048;-84
2021/12/04 02:12:03;;;;;;;16.98;13.50;;;;;;;;;;4998603;28;20041;-84
2021/12/04 02:14:29;;;;;;;16.67;12.80;;;;;;;;;;5014790;28;20411;-84
2021/12/04 02:16:55;;;;;;;17.77;13.48;;;;;;;;;;4997676;28;20037;-84
2021/12/04 02:19:21;;;;;;;18.95;14.13;;;;;;;;;;4996947;28;20120;-84
2021/12/04 02:21:47;;;;;;;15.10;12.32;;;;;;;;;;5013753;28;20072;-84
2021/12/04 02:24:13;;;;;;;16.27;12.77;;;;;;;;;;5014870;28;20499;-84
2021/12/04 02:26:39;;;;;;;15.18;11.80;;;;;;;;;;5017035;28;20036;-84
2021/12/04 02:29:05;;;;;;;15.30;11.90;;;;;;;;;;5021864;28;20036;-84
2021/12/04 02:31:31;;;;;;;13.02;10.70;;;;;;;;;;5012429;28;20403;-84
2021/12/04 02:33:57;;;;;;;13.23;11.00;;;;;;;;;;5027457;28;20045;-84
2021/12/04 02:36:23;;;;;;;13.60;10.40;;;;;;;;;;5017208;28;20052;-83
2021/12/04 02:38:51;;;;;;;14.65;11.18;;;;;;;;;;5004391;28;20038;-84
2021/12/04 02:41:19;;;;;;;11.75;10.20;;;;;;;;;;5016264;28;20041;-84
2021/12/04 02:43:45;;;;;;;12.27;10.70;;;;;;;;;;5032383;28;20045;-84
2021/12/04 02:46:12;;;;;;;12.38;9.93;;;;;;;;;;4998399;28;20041;-84
2021/12/04 02:48:38;;;;;;;12.27;10.65;;;;;;;;;;5001728;28;20033;-84
2021/12/04 02:51:04;;;;;;;13.63;10.85;;;;;;;;;;5016655;28;20159;-84
2021/12/04 02:53:30;;;;;;;13.70;10.88;;;;;;;;;;5029778;28;20131;-84
2021/12/04 02:55:56;;;;;;;13.85;10.95;;;;;;;;;;5025080;28;20051;-84
2021/12/04 02:58:22;;;;;;;15.55;11.93;;;;;;;;;;5016579;28;20088;-84
2021/12/04 03:00:50;;;;;;;13.27;10.95;;;;;;;;;;5016263;28;20090;-84
2021/12/04 03:03:18;;;;;;;12.82;10.75;;;;;;;;;;5032713;28;20036;-83
2021/12/04 03:05:47;;;;;;;15.15;11.55;;;;;;;;;;5033108;28;20072;-84
2021/12/04 03:08:13;;;;;;;13.57;10.75;;;;;;;;;;5033304;28;20049;-84
2021/12/04 03:10:39;;;;;;;15.35;11.07;;;;;;;;;;5015951;28;20041;-84
2021/12/04 03:13:08;;;;;;;12.68;10.68;;;;;;;;;;5017101;28;20521;-84
2021/12/04 03:15:37;;;;;;;13.50;10.60;;;;;;;;;;5031523;28;20253;-84
2021/12/04 03:18:04;;;;;;;12.48;10.82;;;;;;;;;;5016802;28;20060;-84
2021/12/04 03:20:32;;;;;;;15.02;10.15;;;;;;;;;;5032895;28;20051;-84
2021/12/04 03:23:01;;;;;;;14.73;10.85;;;;;;;;;;5015518;28;20427;-85
2021/12/04 03:25:27;;;;;;;13.23;10.13;;;;;;;;;;5030544;28;20035;-84
2021/12/04 03:27:53;;;;;;;12.85;10.35;;;;;;;;;;5032931;28;20106;-85
2021/12/04 03:41:18;;;;;;;11.40;9.75;;;;;;;;;;5016353;28;20049;-86
2021/12/04 03:43:44;;;;;;;13.88;10.68;;;;;;;;;;4999834;28;20050;-83
2021/12/04 03:46:14;;;;;;;11.23;10.02;;;;;;;;;;5040824;28;20076;-84
2021/12/04 03:51:09;;;;;;;12.35;10.07;;;;;;;;;;5019067;28;20045;-84
2021/12/04 03:53:35;;;;;;;12.68;10.18;;;;;;;;;;5012714;28;20124;-84
2021/12/04 03:56:02;;;;;;;12.55;10.45;;;;;;;;;;4995622;28;20052;-84
2021/12/04 03:58:28;;;;;;;30.60;18.25;;;;;;;;;;5006148;28;20045;-84
2021/12/04 04:00:54;;;;;;;21.10;14.32;;;;;;;;;;5021531;28;20037;-84
2021/12/04 04:03:20;;;;;;;13.65;11.25;;;;;;;;;;5018192;28;20506;-84
2021/12/04 04:05:46;;;;;;;12.32;9.85;;;;;;;;;;5014724;28;20116;-84
2021/12/04 04:08:14;;;;;;;11.88;9.98;;;;;;;;;;5032109;28;20057;-84
2021/12/04 04:10:41;;;;;;;12.20;9.95;;;;;;;;;;5008571;28;20419;-84
2021/12/04 04:13:08;;;;;;;13.00;10.45;;;;;;;;;;5016667;28;20041;-84
2021/12/04 04:15:34;;;;;;;13.60;10.52;;;;;;;;;;5016360;28;20165;-84
2021/12/04 04:18:00;;;;;;;14.43;10.35;;;;;;;;;;4999722;28;20099;-85
2021/12/04 04:20:26;;;;;;;13.07;10.73;;;;;;;;;;5024154;28;20033;-84
2021/12/04 04:22:52;;;;;;;12.30;10.18;;;;;;;;;;5016286;28;20076;-84
2021/12/04 04:25:18;;;;;;;14.30;11.10;;;;;;;;;;4999986;28;20040;-84
2021/12/04 04:27:44;;;;;;;14.57;11.45;;;;;;;;;;5015478;28;20492;-84
2021/12/04 04:30:15;;;;;;;13.70;10.52;;;;;;;;;;5001027;28;20407;-84
2021/12/04 04:32:42;;;;;;;13.50;10.23;;;;;;;;;;5018566;28;20048;-84
2021/12/04 04:35:14;;;;;;;13.05;10.38;;;;;;;;;;5035180;28;20047;-84
2021/12/04 05:12:55;;;;;;;13.43;9.50;;;;;;;;;;5030565;28;20049;-84
2021/12/04 05:15:44;;;;;;;14.32;9.88;;;;;;;;;;5002690;28;20073;-85
2021/12/04 05:20:51;;;;;;;13.18;10.02;;;;;;;;;;5022080;28;20131;-85
2021/12/04 05:23:17;;;;;;;13.90;10.52;;;;;;;;;;4999664;28;20047;-84
2021/12/04 05:25:43;;;;;;;13.52;10.93;;;;;;;;;;4998715;28;20556;-84
2021/12/04 05:28:10;;;;;;;13.10;10.48;;;;;;;;;;4998641;28;20037;-84
2021/12/04 05:30:36;;;;;;;15.18;11.43;;;;;;;;;;5045420;28;20090;-84
2021/12/04 05:33:03;;;;;;;15.90;11.63;;;;;;;;;;5044557;28;20040;-84
2021/12/04 05:35:29;;;;;;;13.98;10.80;;;;;;;;;;5044827;28;20036;-84
2021/12/04 05:37:55;;;;;;;13.35;10.75;;;;;;;;;;5029988;28;20128;-85
2021/12/04 05:40:21;;;;;;;14.57;11.35;;;;;;;;;;5001113;28;20033;-85
2021/12/04 05:42:47;;;;;;;14.25;11.05;;;;;;;;;;5017986;28;20517;-85
2021/12/04 05:45:24;;;;;;;12.38;10.13;;;;;;;;;;5024274;28;20037;-85
2021/12/04 05:47:55;;;;;;;14.60;10.23;;;;;;;;;;5014407;28;20088;-85
2021/12/04 05:50:41;;;;;;;14.05;10.75;;;;;;;;;;5015023;28;20515;-85
2021/12/04 05:55:42;;;;;;;22.08;16.48;;;;;;;;;;5026082;28;20060;-85
2021/12/04 05:58:08;;;;;;;15.63;12.88;;;;;;;;;;5041507;28;20057;-84
2021/12/04 06:00:34;;;;;;;17.55;14.02;;;;;;;;;;5058529;28;20067;-84
2021/12/04 06:03:00;;;;;;;16.55;13.40;;;;;;;;;;5022705;28;20048;-85
2021/12/04 06:05:26;;;;;;;17.02;14.02;;;;;;;;;;5031337;28;20041;-85
2021/12/04 06:07:52;;;;;;;16.58;13.23;;;;;;;;;;5023091;28;20053;-84
2021/12/04 06:10:18;;;;;;;16.20;12.38;;;;;;;;;;5010661;28;20499;-85
2021/12/04 06:12:44;;;;;;;17.23;12.23;;;;;;;;;;5033961;28;20063;-85
2021/12/04 06:15:10;;;;;;;15.65;11.63;;;;;;;;;;5036033;28;20052;-85
2021/12/04 06:17:36;;;;;;;17.10;11.93;;;;;;;;;;5018039;28;20040;-85
2021/12/04 06:22:47;;;;;;;17.52;13.10;;;;;;;;;;5044864;28;20037;-85
2021/12/04 06:25:15;;;;;;;16.23;11.95;;;;;;;;;;5016824;28;20037;-85
2021/12/04 06:27:42;;;;;;;15.43;11.70;;;;;;;;;;5014145;28;20120;-85
2021/12/04 06:30:10;;;;;;;18.42;13.02;;;;;;;;;;5000341;28;20038;-87
2021/12/04 06:32:36;;;;;;;17.70;12.23;;;;;;;;;;4998585;28;20420;-85
2021/12/04 06:35:04;;;;;;;19.90;13.77;;;;;;;;;;4998185;28;20530;-85
2021/12/04 06:37:30;;;;;;;18.25;13.25;;;;;;;;;;5029805;28;20045;-85
2021/12/04 06:39:56;;;;;;;16.83;12.00;;;;;;;;;;5012415;28;20041;-86
2021/12/04 06:42:28;;;;;;;22.58;15.57;;;;;;;;;;5014181;28;20044;-90
2021/12/04 06:49:01;;;;;;;21.20;13.80;;;;;;;;;;4981797;28;20043;-87
2021/12/04 06:51:34;;;;;;;20.20;13.65;;;;;;;;;;4987368;28;20046;-86
2021/12/04 06:56:38;;;;;;;19.67;14.88;;;;;;;;;;4979715;28;20049;-85
2021/12/04 06:59:07;;;;;;;24.50;17.38;;;;;;;;;;4996532;28;20184;-86
2021/12/04 07:01:33;;;;;;;20.35;15.35;;;;;;;;;;5013602;28;20124;-85
2021/12/04 07:03:59;;;;;;;26.05;19.33;;;;;;;;;;5013185;28;20118;-85
2021/12/04 07:06:25;;;;;;;24.90;18.15;;;;;;;;;;5034844;28;20071;-85
2021/12/04 07:08:51;;;;;;;25.73;16.52;;;;;;;;;;5036302;28;20067;-85
2021/12/04 07:11:17;;;;;;;25.98;17.67;;;;;;;;;;5035215;28;20076;-84
2021/12/04 07:13:43;;;;;;;28.02;21.20;;;;;;;;;;5031796;28;20044;-85
2021/12/04 07:16:12;;;;;;;28.17;20.25;;;;;;;;;;5020173;28;20204;-85
2021/12/04 07:18:38;;;;;;;30.50;21.20;;;;;;;;;;5001497;28;20033;-85
2021/12/04 07:21:04;;;;;;;30.63;20.10;;;;;;;;;;5002667;28;20515;-85
2021/12/04 07:23:31;;;;;;;30.75;19.08;;;;;;;;;;5022487;28;20066;-86
2021/12/04 07:25:58;;;;;;;28.83;19.48;;;;;;;;;;5035595;28;20044;-85
2021/12/04 07:28:24;;;;;;;27.40;17.60;;;;;;;;;;5033766;28;21613;-86
2021/12/04 07:30:51;;;;;;;31.23;18.77;;;;;;;;;;5026449;28;20037;-86
2021/12/04 07:33:17;;;;;;;32.67;20.23;;;;;;;;;;5033434;28;20041;-85
2021/12/04 07:35:43;;;;;;;32.05;19.02;;;;;;;;;;5034533;28;20571;-86
2021/12/04 07:38:10;;;;;;;29.63;18.50;;;;;;;;;;5018014;28;20499;-86
2021/12/04 07:40:37;;;;;;;29.88;18.27;;;;;;;;;;5025609;28;20037;-86
2021/12/04 07:43:03;;;;;;;35.85;20.45;;;;;;;;;;5028556;28;20037;-86
2021/12/04 07:45:29;;;;;;;38.92;23.58;;;;;;;;;;5034836;28;20036;-86
2021/12/04 07:47:55;;;;;;;43.60;28.10;;;;;;;;;;5031457;28;20191;-85
2021/12/04 07:50:21;;;;;;;39.35;24.92;;;;;;;;;;5028471;28;20055;-85
2021/12/04 07:52:47;;;;;;;39.50;22.15;;;;;;;;;;5030653;28;20119;-83
2021/12/04 07:55:13;;;;;;;36.58;23.50;;;;;;;;;;5046115;28;20127;-85
2021/12/04 07:57:40;;;;;;;38.53;26.23;;;;;;;;;;5042566;28;20076;-84
2021/12/04 08:00:07;;;;;;;32.10;20.10;;;;;;;;;;5023747;28;20470;-85
2021/12/04 08:02:33;;;;;;;35.47;22.35;;;;;;;;;;5022258;28;20536;-85
2021/12/04 08:04:59;;;;;;;33.60;20.00;;;;;;;;;;5041915;28;20040;-85
2021/12/04 08:07:25;;;;;;;32.15;18.92;;;;;;;;;;5025272;28;20367;-85
2021/12/04 08:09:51;;;;;;;31.17;17.85;;;;;;;;;;5045035;28;20044;-84
2021/12/04 08:12:18;;;;;;;29.90;19.08;;;;;;;;;;5021544;28;20076;-84
2021/12/04 08:14:44;;;;;;;28.65;18.13;;;;;;;;;;5043454;28;20075;-85
2021/12/04 08:17:10;;;;;;;33.53;17.52;;;;;;;;;;5041922;28;20036;-84
2021/12/04 08:19:36;;;;;;;34.17;18.33;;;;;;;;;;5046197;28;20408;-84
2021/12/04 08:22:02;;;;;;;27.02;16.75;;;;;;;;;;5044525;28;20052;-84
2021/12/04 08:24:28;;;;;;;28.52;17.30;;;;;;;;;;5042775;28;20090;-84
2021/12/04 08:26:54;;;;;;;29.25;16.88;;;;;;;;;;5027809;28;20120;-84
2021/12/04 08:29:21;;;;;;;32.05;17.08;;;;;;;;;;5038113;28;20040;-84
2021/12/04 08:31:47;;;;;;;32.95;18.98;;;;;;;;;;5044608;28;20047;-84
2021/12/04 08:34:14;;;;;;;34.08;17.73;;;;;;;;;;5042265;28;20057;-84
2021/12/04 08:36:40;;;;;;;31.67;18.23;;;;;;;;;;5043293;28;20045;-84
2021/12/04 08:39:06;;;;;;;30.08;16.92;;;;;;;;;;5020465;28;20048;-84
2021/12/04 08:41:32;;;;;;;26.92;15.85;;;;;;;;;;5026759;28;20411;-84
2021/12/04 08:43:58;;;;;;;33.08;18.48;;;;;;;;;;5030926;28;20412;-85
2021/12/04 08:46:24;;;;;;;33.95;19.13;;;;;;;;;;5023103;28;20037;-85
2021/12/04 08:48:52;;;;;;;32.08;18.92;;;;;;;;;;5020830;28;20068;-84
2021/12/04 08:51:21;;;;;;;30.38;16.38;;;;;;;;;;5028066;28;20048;-83
2021/12/04 08:53:48;;;;;;;31.70;19.25;;;;;;;;;;5044810;28;20041;-86
2021/12/04 08:56:14;;;;;;;31.20;17.65;;;;;;;;;;5022502;28;20080;-86
2021/12/04 08:58:41;;;;;;;29.88;17.98;;;;;;;;;;5035061;28;20567;-86
2021/12/04 09:01:12;;;;;;;30.63;18.00;;;;;;;;;;5020647;28;20048;-87
2021/12/04 09:03:39;;;;;;;29.65;18.17;;;;;;;;;;5025936;28;20510;-87
2021/12/04 09:06:06;;;;;;;33.50;17.60;;;;;;;;;;5000414;28;20098;-87
2021/12/04 09:08:32;;;;;;;33.35;17.88;;;;;;;;;;5033082;28;20261;-87
2021/12/04 09:11:00;;;;;;;32.30;17.13;;;;;;;;;;5037368;28;20044;-87
2021/12/04 09:13:28;;;;;;;31.85;17.48;;;;;;;;;;5031084;28;20037;-87
2021/12/04 09:15:56;;;;;;;33.83;18.45;;;;;;;;;;5011730;28;20051;-86
2021/12/04 09:18:22;;;;;;;36.08;18.42;;;;;;;;;;5028530;28;20045;-83
2021/12/04 09:20:50;;;;;;;34.58;18.95;;;;;;;;;;5037984;28;20044;-84
2021/12/04 09:23:18;;;;;;;35.40;17.95;;;;;;;;;;5025831;28;20077;-84
2021/12/04 09:25:50;;;;;;;37.55;18.00;;;;;;;;;;5017777;28;20049;-85
2021/12/04 09:28:34;;;;;;;31.80;15.93;;;;;;;;;;5006696;28;20119;-86
2021/12/04 09:36:25;;;;;;;37.13;16.13;;;;;;;;;;5028914;28;20053;-86
2021/12/04 10:01:16;;;;;;;36.78;17.00;;;;;;;;;;5031530;28;20522;-87
2021/12/04 10:11:09;;;;;;;40.45;18.30;;;;;;;;;;5017082;28;20042;-86
2021/12/04 10:15:35;;;;;;;41.50;18.23;;;;;;;;;;5023673;28;20541;-87
2021/12/04 10:20:40;;;;;;;34.90;16.50;;;;;;;;;;5036849;28;19931;-86
2021/12/04 10:23:22;;;;;;;39.55;18.00;;;;;;;;;;5039714;28;20506;-86
2021/12/04 10:33:51;;;;;;;31.85;16.55;;;;;;;;;;5028810;28;20068;-86
2021/12/04 10:36:31;;;;;;;35.63;17.25;;;;;;;;;;5034064;28;20147;-86
2021/12/04 10:38:58;;;;;;;35.72;15.88;;;;;;;;;;5039013;28;20238;-86
2021/12/04 10:41:44;;;;;;;30.48;16.20;;;;;;;;;;5020026;28;20453;-78
2021/12/04 10:44:13;;;;;;;35.35;17.48;;;;;;;;;;5026237;28;20072;-86
2021/12/04 10:46:39;;;;;;;34.60;17.27;;;;;;;;;;5016030;28;20124;-86
2021/12/04 10:49:14;;;;;;;40.05;18.63;;;;;;;;;;5012486;28;20414;-87
2021/12/04 10:51:46;;;;;;;35.85;18.77;;;;;;;;;;5028685;28;20051;-86
2021/12/04 10:54:26;;;;;;;38.17;19.35;;;;;;;;;;5013555;28;20075;-87
2021/12/04 10:57:06;;;;;;;37.20;18.58;;;;;;;;;;5033509;28;20511;-87
2021/12/04 10:59:46;;;;;;;36.58;18.67;;;;;;;;;;5034446;28;20048;-87
2021/12/04 11:02:27;;;;;;;41.85;20.08;;;;;;;;;;5038167;28;20049;-88
2021/12/04 11:05:12;;;;;;;43.95;21.33;;;;;;;;;;5054590;28;20041;-88
2021/12/04 11:18:58;;;;;;;52.30;25.25;;;;;;;;;;5047845;28;20040;-87
2021/12/04 11:40:05;;;;;;;70.97;31.80;;;;;;;;;;5013139;28;20324;-86
2021/12/04 11:42:39;;;;;;;72.78;36.97;;;;;;;;;;5011686;28;20033;-86
2021/12/04 11:45:12;;;;;;;;;;;;;;;;;;5013111;28;20438;-86
2021/12/04 11:47:39;;;;;;;70.70;29.95;;;;;;;;;;5030812;28;19920;-86
2021/12/04 11:50:38;;;;;;;74.25;30.70;;;;;;;;;;5054504;28;20088;-86
2021/12/04 11:53:05;;;;;;;75.78;31.58;;;;;;;;;;4990487;28;20057;-87
2021/12/04 11:55:34;;;;;;;74.25;32.28;;;;;;;;;;5038064;28;20026;-87
2021/12/04 11:58:01;;;;;;;72.57;31.75;;;;;;;;;;5010544;28;20038;-86
2021/12/04 12:00:29;;;;;;;75.65;31.02;;;;;;;;;;5008299;28;20057;-86
2021/12/04 12:03:16;;;;;;;83.25;33.65;;;;;;;;;;5019300;28;20090;-86
2021/12/04 12:05:45;;;;;;;80.28;33.75;;;;;;;;;;5016780;28;20041;-86
2021/12/04 12:08:27;;;;;;;85.43;35.42;;;;;;;;;;5032124;28;20029;-86
2021/12/04 12:10:55;;;;;;;79.18;32.88;;;;;;;;;;5034157;28;20041;-85
2021/12/04 12:13:29;;;;;;;79.05;32.47;;;;;;;;;;5033622;28;20095;-88
2021/12/04 12:16:05;;;;;;;71.03;32.00;;;;;;;;;;5029656;28;20404;-86
2021/12/04 12:18:42;;;;;;;80.80;34.30;;;;;;;;;;5037822;28;20105;-86
2021/12/04 12:21:11;;;;;;;78.00;34.33;;;;;;;;;;5026400;28;20241;-86
2021/12/04 12:24:11;;;;;;;77.22;32.15;;;;;;;;;;5038802;28;20045;-86
2021/12/04 12:26:55;;;;;;;69.00;29.35;;;;;;;;;;5019624;28;20065;-86
2021/12/04 12:38:31;;;;;;;59.38;28.02;;;;;;;;;;5035325;28;20064;-86
2021/12/04 12:41:03;;;;;;;65.70;29.95;;;;;;;;;;5019871;28;20621;-86
2021/12/04 12:43:38;;;;;;;66.32;29.45;;;;;;;;;;5024567;28;20033;-85
2021/12/04 12:46:04;;;;;;;63.60;28.92;;;;;;;;;;5024977;28;20033;-86
2021/12/04 12:48:41;;;;;;;68.75;30.27;;;;;;;;;;5022226;28;20073;-85
2021/12/04 12:51:07;;;;;;;68.78;31.70;;;;;;;;;;5017521;28;20094;-87
2021/12/04 12:53:42;;;;;;;72.00;31.02;;;;;;;;;;5036152;28;20037;-87
2021/12/04 12:56:13;;;;;;;70.20;31.73;;;;;;;;;;5024686;28;20052;-86
2021/12/04 12:58:53;;;;;;;66.72;30.83;;;;;;;;;;5029534;28;20044;-86
2021/12/04 13:12:46;;;;;;;63.75;29.02;;;;;;;;;;5031957;28;20411;-86
2021/12/04 13:15:13;;;;;;;57.72;30.35;;;;;;;;;;5022527;28;20045;-84
2021/12/04 13:17:41;;;;;;;62.97;29.23;;;;;;;;;;5034829;28;20084;-87
2021/12/04 13:20:08;;;;;;;68.05;31.10;;;;;;;;;;5016188;28;20080;-86
2021/12/04 13:22:35;;;;;;;67.35;30.40;;;;;;;;;;5040214;28;20038;-85
2021/12/04 13:25:06;;;;;;;66.40;30.90;;;;;;;;;;5037392;28;20041;-85
2021/12/04 13:30:06;;;;;;;68.30;30.70;;;;;;;;;;5032313;28;20045;-86
2021/12/04 13:32:42;;;;;;;60.63;29.13;;;;;;;;;;5020308;28;20045;-87
2021/12/04 13:35:13;;;;;;;61.35;28.85;;;;;;;;;;5020367;28;20048;-86
2021/12/04 13:37:39;;;;;;;60.90;29.73;;;;;;;;;;5024135;28;20036;-85
2021/12/04 13:40:07;;;;;;;59.63;29.42;;;;;;;;;;5047007;28;20044;-85
2021/12/04 13:42:34;;;;;;;58.33;29.20;;;;;;;;;;5034979;28;20059;-85
2021/12/04 13:45:02;;;;;;;60.03;27.80;;;;;;;;;;5036491;28;20063;-86
2021/12/04 13:47:28;;;;;;;57.28;27.83;;;;;;;;;;5032330;28;20094;-86
2021/12/04 13:49:56;;;;;;;56.13;28.90;;;;;;;;;;5016324;28;20116;-86
2021/12/04 13:52:23;;;;;;;60.80;28.48;;;;;;;;;;5050074;28;20075;-86
2021/12/04 13:54:51;;;;;;;57.97;27.23;;;;;;;;;;5017056;28;20064;-86
2021/12/04 13:57:17;;;;;;;53.47;27.40;;;;;;;;;;5037436;28;20040;-86
2021/12/04 13:59:43;;;;;;;58.65;27.27;;;;;;;;;;5022606;28;20049;-86
2021/12/04 14:02:20;;;;;;;62.90;27.98;;;;;;;;;;5035201;28;20035;-86
2021/12/04 14:04:57;;;;;;;65.88;29.42;;;;;;;;;;5025420;28;20095;-86
2021/12/04 14:07:23;;;;;;;59.45;27.13;;;;;;;;;;5036379;28;20052;-85
2021/12/04 14:09:49;;;;;;;64.22;29.35;;;;;;;;;;5036771;28;20041;-85
2021/12/04 14:12:15;;;;;;;65.40;27.92;;;;;;;;;;5006076;28;20041;-85
2021/12/04 14:14:41;;;;;;;63.40;29.05;;;;;;;;;;5019680;28;20095;-85
2021/12/04 14:17:09;;;;;;;55.95;28.30;;;;;;;;;;5007907;28;20033;-85
2021/12/04 14:19:36;;;;;;;63.45;29.02;;;;;;;;;;5023325;28;20045;-85
2021/12/04 14:22:09;;;;;;;53.83;27.65;;;;;;;;;;5004994;28;20056;-86
2021/12/04 14:24:41;;;;;;;63.50;29.67;;;;;;;;;;5040376;28;20406;-85
2021/12/04 14:27:09;;;;;;;63.30;31.02;;;;;;;;;;5035583;28;20033;-86
2021/12/04 14:29:37;;;;;;;68.68;34.65;;;;;;;;;;5035910;28;20044;-86
2021/12/04 14:32:04;;;;;;;65.97;32.58;;;;;;;;;;5037534;28;20041;-86
2021/12/04 14:34:31;;;;;;;71.40;33.00;;;;;;;;;;5030032;28;20071;-87
2021/12/04 14:37:00;;;;;;;64.68;32.05;;;;;;;;;;5039447;28;20037;-86
2021/12/04 14:39:26;;;;;;;60.33;29.98;;;;;;;;;;5015857;28;20482;-87
2021/12/04 14:41:52;;;;;;;61.03;30.00;;;;;;;;;;5058451;28;20506;-87
2021/12/04 14:44:19;;;;;;;64.00;29.80;;;;;;;;;;5013004;28;20029;-86
2021/12/04 14:46:45;;;;;;;71.15;33.80;;;;;;;;;;5014876;28;20119;-85
2021/12/04 14:49:13;;;;;;;65.30;35.38;;;;;;;;;;5037793;28;20041;-86
2021/12/04 14:51:39;;;;;;;81.85;48.65;;;;;;;;;;5021507;28;20036;-87
2021/12/04 14:54:06;;;;;;;72.05;36.35;;;;;;;;;;5007364;28;20415;-87
2021/12/04 14:56:32;;;;;;;67.45;33.50;;;;;;;;;;5021384;28;20127;-86
2021/12/04 14:58:58;;;;;;;67.80;30.30;;;;;;;;;;5028606;28;20080;-86
2021/12/04 15:01:29;;;;;;;64.75;30.48;;;;;;;;;;5032129;28;20460;-86
2021/12/04 15:03:58;;;;;;;71.95;31.23;;;;;;;;;;5020346;28;20050;-87
2021/12/04 15:06:29;;;;;;;74.57;32.70;;;;;;;;;;5046979;28;20492;-87
2021/12/04 15:08:59;;;;;;;73.38;32.67;;;;;;;;;;5049698;28;20048;-86
2021/12/04 15:11:30;;;;;;;74.43;35.92;;;;;;;;;;5030347;28;20033;-86
2021/12/04 15:13:57;;;;;;;87.82;42.08;;;;;;;;;;5007074;28;20049;-86
2021/12/04 15:16:33;;;;;;;71.35;37.22;;;;;;;;;;5019648;28;20042;-86
2021/12/04 15:25:56;;;;;;;67.15;32.78;;;;;;;;;;5065617;23;20054;-33
2021/12/04 15:28:24;;;;;;;64.13;31.27;;;;;;;;;;5109150;28;20066;-37
2021/12/04 15:30:53;;;;;;;63.95;31.00;;;;;;;;;;5097906;28;20043;-33
2021/12/04 15:33:24;;;;;;;62.92;32.55;;;;;;;;;;5108064;28;20096;-34
2021/12/04 15:35:51;;;;;;;62.80;29.65;;;;;;;;;;5096685;28;20042;-35
2021/12/04 15:38:30;;;;;;;67.45;33.15;;;;;;;;;;5092980;28;20104;-35
2021/12/04 15:46:33;;;;;;;60.45;32.95;;;;;;;;;;5081962;28;20041;-34
2021/12/04 15:49:24;;;;;;;69.07;33.05;;;;;;;;;;5090155;28;20146;-34
2021/12/04 15:54:25;;;;;;;69.30;33.90;;;;;;;;;;5108157;28;20048;-35
2021/12/04 15:56:55;;;;;;;59.65;30.15;;;;;;;;;;5108202;28;20048;-35
2021/12/04 15:59:23;;;;;;;70.18;35.17;;;;;;;;;;5106469;28;20433;-32
2021/12/04 16:01:52;;;;;;;58.13;30.90;;;;;;;;;;5106707;28;20044;-32
2021/12/04 16:04:37;;;;;;;63.90;32.33;;;;;;;;;;5098663;28;20050;-31
2021/12/04 16:07:03;;;;;;;62.03;32.08;;;;;;;;;;5109553;28;20043;-33
2021/12/04 16:09:42;;;;;;;69.10;35.72;;;;;;;;;;5093156;28;20519;-34
2021/12/04 16:12:13;;;;;;;61.75;33.15;;;;;;;;;;5095781;28;20121;-32
2021/12/04 16:14:40;;;;;;;65.20;35.38;;;;;;;;;;5093875;28;20043;-34
2021/12/04 16:17:07;;;;;;;73.88;38.05;;;;;;;;;;5088399;28;20036;-33
2021/12/04 16:19:38;;;;;;;72.43;39.33;;;;;;;;;;5084334;28;20134;-34
2021/12/04 16:22:08;;;;;;;78.25;41.10;;;;;;;;;;5084154;28;20048;-33
2021/12/04 16:24:39;;;;;;;73.75;40.22;;;;;;;;;;5089625;28;20123;-33
2021/12/04 16:27:26;;;;;;;73.72;37.35;;;;;;;;;;5079883;28;20039;-33
2021/12/04 16:30:30;;;;;;;67.50;35.55;;;;;;;;;;5080550;28;20051;-34
2021/12/04 16:35:53;;;;;;;63.00;33.65;;;;;;;;;;5087304;28;20116;-32
2021/12/04 16:38:21;;;;;;;69.25;38.63;;;;;;;;;;5088812;28;20066;-34
2021/12/04 16:40:49;;;;;;;64.00;36.85;;;;;;;;;;5086313;28;20128;-35
2021/12/04 16:43:19;;;;;;;74.97;40.13;;;;;;;;;;5087694;28;20264;-33
2021/12/04 16:45:53;;;;;;;66.05;35.45;;;;;;;;;;5096527;28;20509;-33
2021/12/04 16:48:27;;;;;;;56.92;32.03;;;;;;;;;;5083523;28;20044;-34
2021/12/04 16:59:12;;;;;;;56.47;32.28;;;;;;;;;;5089203;28;20047;-33
2021/12/04 17:01:40;;;;;;;49.97;27.85;;;;;;;;;;5094632;28;20040;-33
2021/12/04 17:04:07;;;;;;;52.97;29.33;;;;;;;;;;5093953;28;20417;-34
2021/12/04 17:06:34;;;;;;;48.00;28.35;;;;;;;;;;5099616;28;20042;-33
2021/12/04 17:09:01;;;;;;;55.28;30.83;;;;;;;;;;5110661;28;20051;-35
2021/12/04 17:11:31;;;;;;;47.33;29.15;;;;;;;;;;5078244;28;20035;-33
2021/12/04 17:13:57;;;;;;;48.65;29.13;;;;;;;;;;5092535;28;20119;-33
2021/12/04 17:16:29;;;;;;;43.22;27.17;;;;;;;;;;5094561;28;20039;-33
2021/12/04 17:19:08;;;;;;;46.13;28.08;;;;;;;;;;5090811;28;20063;-36
2021/12/04 17:21:43;;;;;;;44.90;27.83;;;;;;;;;;5110252;28;20070;-37
2021/12/04 17:24:17;;;;;;;43.53;27.25;;;;;;;;;;5099434;28;20049;-35
2021/12/04 17:26:47;;;;;;;48.88;30.50;;;;;;;;;;5079183;28;20040;-34
2021/12/04 17:29:16;;;;;;;46.83;30.23;;;;;;;;;;5088187;28;20123;-34
2021/12/04 17:31:43;;;;;;;49.60;31.30;;;;;;;;;;5078175;28;20037;-34
2021/12/04 17:34:16;;;;;;;55.83;33.75;;;;;;;;;;5085102;28;20082;-36
2021/12/04 17:36:54;;;;;;;49.30;33.70;;;;;;;;;;5082733;28;20036;-34
2021/12/04 17:39:22;;;;;;;60.20;38.95;;;;;;;;;;5085306;28;20048;-32
2021/12/04 17:41:54;;;;;;;47.42;29.95;;;;;;;;;;5079582;28;20076;-32
2021/12/04 17:44:26;;;;;;;43.92;29.30;;;;;;;;;;5087472;28;21191;-36
2021/12/04 17:46:56;;;;;;;42.88;28.58;;;;;;;;;;5090438;28;20050;-33
2021/12/04 17:49:25;;;;;;;46.95;31.20;;;;;;;;;;5089662;28;20052;-31
2021/12/04 17:51:53;;;;;;;54.45;34.38;;;;;;;;;;5103350;28;20092;-32